sensor_id;sensor_type;location;lat;lon;timestamp;pressure;altitude;pressure_sealevel;temperature;humidity
23170;BME280;11753;43.144;24.714;2022-08-11T00:00:20;99775.63;;;19.97;92.22
23170;BME280;11753;43.144;24.714;2022-08-11T00:01:32;99775.84;;;19.96;92.65
23170;BME280;11753;43.144;24.714;2022-08-11T00:02:34;99775.06;;;19.89;92.99
23170;BME280;11753;43.144;24.714;2022-08-11T00:03:36;99773.81;;;19.85;93.03
23170;BME280;11753;43.144;24.714;2022-08-11T00:04:41;99774.03;;;19.76;93.21
23170;BME280;11753;43.144;24.714;2022-08-11T00:05:51;99774.88;;;19.77;93.33
23170;BME280;11753;43.144;24.714;2022-08-11T00:06:52;99774.88;;;19.70;93.49
23170;BME280;11753;43.144;24.714;2022-08-11T00:07:55;99776.13;;;19.68;93.81
23170;BME280;11753;43.144;24.714;2022-08-11T00:08:57;99774.03;;;19.76;94.01
23170;BME280;11753;43.144;24.714;2022-08-11T00:09:58;99772.41;;;19.75;93.19
23170;BME280;11753;43.144;24.714;2022-08-11T00:11:06;99776.13;;;19.74;92.92
23170;BME280;11753;43.144;24.714;2022-08-11T00:12:14;99780.22;;;19.57;92.80
23170;BME280;11753;43.144;24.714;2022-08-11T00:13:16;99770.78;;;19.35;92.90
23170;BME280;11753;43.144;24.714;2022-08-11T00:14:21;99776.34;;;19.27;93.16
23170;BME280;11753;43.144;24.714;2022-08-11T00:15:23;99774.09;;;19.37;93.13
23170;BME280;11753;43.144;24.714;2022-08-11T00:16:24;99772.25;;;19.44;91.18
23170;BME280;11753;43.144;24.714;2022-08-11T00:17:30;99776.53;;;19.45;89.79
23170;BME280;11753;43.144;24.714;2022-08-11T00:18:45;99764.00;;;19.45;89.54
23170;BME280;11753;43.144;24.714;2022-08-11T00:19:46;99769.97;;;19.47;88.87
23170;BME280;11753;43.144;24.714;2022-08-11T00:20:47;99764.41;;;19.49;87.23
23170;BME280;11753;43.144;24.714;2022-08-11T00:21:48;99769.94;;;19.54;86.57
23170;BME280;11753;43.144;24.714;2022-08-11T00:22:49;99766.25;;;19.55;85.81
23170;BME280;11753;43.144;24.714;2022-08-11T00:23:57;99764.63;;;19.47;85.72
23170;BME280;11753;43.144;24.714;2022-08-11T00:24:59;99765.84;;;19.51;86.01
23170;BME280;11753;43.144;24.714;2022-08-11T00:26:08;99764.22;;;19.57;85.84
23170;BME280;11753;43.144;24.714;2022-08-11T00:27:09;99763.19;;;19.65;84.28
23170;BME280;11753;43.144;24.714;2022-08-11T00:29:54;99761.97;;;19.61;83.47
23170;BME280;11753;43.144;24.714;2022-08-11T00:30:55;99762.97;;;19.53;83.79
23170;BME280;11753;43.144;24.714;2022-08-11T00:31:57;99762.19;;;19.59;84.08
23170;BME280;11753;43.144;24.714;2022-08-11T00:33:01;99762.41;;;19.58;83.75
23170;BME280;11753;43.144;24.714;2022-08-11T00:34:02;99766.50;;;19.60;82.94
23170;BME280;11753;43.144;24.714;2022-08-11T00:35:05;99758.47;;;19.60;82.81
23170;BME280;11753;43.144;24.714;2022-08-11T00:36:09;99758.69;;;19.59;82.83
23170;BME280;11753;43.144;24.714;2022-08-11T00:37:15;99752.09;;;19.61;82.43
23170;BME280;11753;43.144;24.714;2022-08-11T00:38:17;99758.03;;;19.63;82.02
23170;BME280;11753;43.144;24.714;2022-08-11T00:39:23;99756.84;;;19.59;83.19
23170;BME280;11753;43.144;24.714;2022-08-11T00:40:33;99756.84;;;19.59;83.15
23170;BME280;11753;43.144;24.714;2022-08-11T00:45:22;99747.78;;;19.67;82.40
23170;BME280;11753;43.144;24.714;2022-08-11T00:49:44;99755.78;;;19.73;83.24
23170;BME280;11753;43.144;24.714;2022-08-11T00:55:30;99764.41;;;19.62;84.79
23170;BME280;11753;43.144;24.714;2022-08-11T01:02:25;99758.91;;;19.17;88.96
23170;BME280;11753;43.144;24.714;2022-08-11T01:06:20;99754.81;;;19.08;89.73
23170;BME280;11753;43.144;24.714;2022-08-11T01:13:37;99762.16;;;19.06;90.23
23170;BME280;11753;43.144;24.714;2022-08-11T01:16:11;99764.66;;;19.01;89.26
23170;BME280;11753;43.144;24.714;2022-08-11T01:17:44;99765.47;;;19.02;89.93
23170;BME280;11753;43.144;24.714;2022-08-11T01:22:46;99766.28;;;18.89;91.35
23170;BME280;11753;43.144;24.714;2022-08-11T01:34:47;99755.72;;;18.61;90.16
23170;BME280;11753;43.144;24.714;2022-08-11T01:42:00;99745.16;;;18.87;88.39
23170;BME280;11753;43.144;24.714;2022-08-11T01:52:39;99752.28;;;18.67;88.50
23170;BME280;11753;43.144;24.714;2022-08-11T01:56:15;99751.41;;;18.53;89.30
23170;BME280;11753;43.144;24.714;2022-08-11T01:59:42;99759.91;;;18.15;94.19
23170;BME280;11753;43.144;24.714;2022-08-11T02:01:01;99760.97;;;18.28;93.43
23170;BME280;11753;43.144;24.714;2022-08-11T02:05:20;99748.53;;;18.48;89.85
23170;BME280;11753;43.144;24.714;2022-08-11T02:06:29;99746.47;;;18.43;90.22
23170;BME280;11753;43.144;24.714;2022-08-11T02:11:50;99748.81;;;18.66;88.78
23170;BME280;11753;43.144;24.714;2022-08-11T02:12:54;99744.91;;;18.69;88.65
23170;BME280;11753;43.144;24.714;2022-08-11T02:14:14;99751.47;;;18.66;89.67
23170;BME280;11753;43.144;24.714;2022-08-11T02:15:26;99755.13;;;18.59;90.43
23170;BME280;11753;43.144;24.714;2022-08-11T02:17:49;99745.72;;;18.69;89.77
23170;BME280;11753;43.144;24.714;2022-08-11T02:20:40;99761.53;;;18.84;89.91
23170;BME280;11753;43.144;24.714;2022-08-11T02:22:02;99759.31;;;18.88;90.09
23170;BME280;11753;43.144;24.714;2022-08-11T02:25:11;99764.84;;;19.00;90.05
23170;BME280;11753;43.144;24.714;2022-08-11T02:27:14;99762.97;;;19.00;89.56
23170;BME280;11753;43.144;24.714;2022-08-11T02:29:41;99766.69;;;18.99;90.05
23170;BME280;11753;43.144;24.714;2022-08-11T02:30:40;99769.34;;;18.92;90.41
23170;BME280;11753;43.144;24.714;2022-08-11T02:32:17;99760.09;;;18.68;93.16
23170;BME280;11753;43.144;24.714;2022-08-11T02:33:38;99772.28;;;18.43;94.41
23170;BME280;11753;43.144;24.714;2022-08-11T02:36:53;99773.16;;;18.63;94.21
23170;BME280;11753;43.144;24.714;2022-08-11T02:38:04;99764.63;;;18.75;92.60
23170;BME280;11753;43.144;24.714;2022-08-11T02:39:07;99761.34;;;18.79;91.11
23170;BME280;11753;43.144;24.714;2022-08-11T02:41:25;99761.47;;;18.51;92.30
23170;BME280;11753;43.144;24.714;2022-08-11T02:43:08;99761.22;;;18.39;93.25
23170;BME280;11753;43.144;24.714;2022-08-11T02:45:27;99766.34;;;18.41;93.50
23170;BME280;11753;43.144;24.714;2022-08-11T02:52:23;99761.72;;;18.69;92.62
23170;BME280;11753;43.144;24.714;2022-08-11T02:55:56;99768.84;;;18.62;93.12
23170;BME280;11753;43.144;24.714;2022-08-11T03:00:51;99758.09;;;18.36;95.02
23170;BME280;11753;43.144;24.714;2022-08-11T03:01:58;99753.44;;;18.38;95.14
23170;BME280;11753;43.144;24.714;2022-08-11T03:03:07;99754.25;;;18.45;95.32
23170;BME280;11753;43.144;24.714;2022-08-11T03:04:14;99750.59;;;18.53;94.81
23170;BME280;11753;43.144;24.714;2022-08-11T03:05:23;99748.53;;;18.48;93.47
23170;BME280;11753;43.144;24.714;2022-08-11T03:06:45;99752.63;;;18.44;93.35
23170;BME280;11753;43.144;24.714;2022-08-11T03:17:46;99749.13;;;18.50;93.92
23170;BME280;11753;43.144;24.714;2022-08-11T03:21:20;99750.59;;;18.53;93.42
23170;BME280;11753;43.144;24.714;2022-08-11T03:22:24;99745.34;;;18.18;94.75
23170;BME280;11753;43.144;24.714;2022-08-11T03:24:10;99746.75;;;18.07;95.32
23170;BME280;11753;43.144;24.714;2022-08-11T03:27:38;99743.00;;;17.95;96.53
23170;BME280;11753;43.144;24.714;2022-08-11T03:28:44;99750.03;;;18.09;96.10
23170;BME280;11753;43.144;24.714;2022-08-11T03:30:00;99739.38;;;18.09;95.84
23170;BME280;11753;43.144;24.714;2022-08-11T03:33:29;99755.44;;;18.23;94.99
23170;BME280;11753;43.144;24.714;2022-08-11T03:34:50;99756.03;;;18.25;94.52
23170;BME280;11753;43.144;24.714;2022-08-11T03:36:19;99748.47;;;18.22;94.97
23170;BME280;11753;43.144;24.714;2022-08-11T03:39:00;99751.44;;;17.36;100.00
23170;BME280;11753;43.144;24.714;2022-08-11T03:40:09;99749.66;;;17.43;100.00
23170;BME280;11753;43.144;24.714;2022-08-11T03:42:57;99749.16;;;17.61;100.00
23170;BME280;11753;43.144;24.714;2022-08-11T03:44:06;99744.13;;;17.73;100.00
23170;BME280;11753;43.144;24.714;2022-08-11T03:51:54;99753.63;;;17.88;97.98
23170;BME280;11753;43.144;24.714;2022-08-11T04:03:29;99764.34;;;18.02;94.20
23170;BME280;11753;43.144;24.714;2022-08-11T04:16:03;99772.63;;;18.27;92.76
23170;BME280;11753;43.144;24.714;2022-08-11T04:19:51;99770.63;;;18.42;92.85
23170;BME280;11753;43.144;24.714;2022-08-11T04:29:42;99777.31;;;18.86;94.22
23170;BME280;11753;43.144;24.714;2022-08-11T04:34:24;99769.34;;;18.99;93.92
23170;BME280;11753;43.144;24.714;2022-08-11T04:38:32;99771.81;;;19.14;92.66
23170;BME280;11753;43.144;24.714;2022-08-11T04:40:54;99772.03;;;19.12;92.41
23170;BME280;11753;43.144;24.714;2022-08-11T04:51:43;99780.03;;;19.19;92.49
23170;BME280;11753;43.144;24.714;2022-08-11T04:57:46;99769.97;;;19.28;92.03
23170;BME280;11753;43.144;24.714;2022-08-11T05:00:29;99779.00;;;19.33;92.29
23170;BME280;11753;43.144;24.714;2022-08-11T05:03:14;99774.69;;;19.39;91.63
23170;BME280;11753;43.144;24.714;2022-08-11T05:05:45;99769.97;;;19.34;91.36
23170;BME280;11753;43.144;24.714;2022-08-11T05:11:26;99761.97;;;19.67;90.33
23170;BME280;11753;43.144;24.714;2022-08-11T05:12:45;99763.78;;;19.73;89.41
23170;BME280;11753;43.144;24.714;2022-08-11T05:13:49;99764.97;;;19.84;88.91
23170;BME280;11753;43.144;24.714;2022-08-11T05:15:11;99766.19;;;19.95;88.21
23170;BME280;11753;43.144;24.714;2022-08-11T05:16:52;99757.50;;;20.06;87.23
23170;BME280;11753;43.144;24.714;2022-08-11T05:18:16;99766.50;;;20.18;86.20
23170;BME280;11753;43.144;24.714;2022-08-11T05:19:42;99761.97;;;20.25;85.35
23170;BME280;11753;43.144;24.714;2022-08-11T05:21:09;99764.16;;;20.35;84.78
23170;BME280;11753;43.144;24.714;2022-08-11T05:22:29;99754.91;;;20.44;83.80
23170;BME280;11753;43.144;24.714;2022-08-11T05:23:52;99758.38;;;20.51;82.52
23170;BME280;11753;43.144;24.714;2022-08-11T05:25:16;99766.97;;;20.60;82.00
23170;BME280;11753;43.144;24.714;2022-08-11T05:26:46;99760.31;;;20.69;81.45
23170;BME280;11753;43.144;24.714;2022-08-11T05:28:40;99767.16;;;20.65;80.15
23170;BME280;11753;43.144;24.714;2022-08-11T05:30:00;99758.84;;;20.73;80.21
23170;BME280;11753;43.144;24.714;2022-08-11T05:31:24;99760.88;;;20.78;79.51
23170;BME280;11753;43.144;24.714;2022-08-11T05:32:45;99764.22;;;20.73;79.39
23170;BME280;11753;43.144;24.714;2022-08-11T05:34:10;99762.75;;;20.71;79.51
23170;BME280;11753;43.144;24.714;2022-08-11T05:35:40;99760.50;;;20.74;79.39
23170;BME280;11753;43.144;24.714;2022-08-11T05:36:58;99757.00;;;20.74;79.18
23170;BME280;11753;43.144;24.714;2022-08-11T05:38:01;99760.50;;;20.74;78.94
23170;BME280;11753;43.144;24.714;2022-08-11T05:39:25;99759.28;;;20.70;78.57
23170;BME280;11753;43.144;24.714;2022-08-11T05:40:47;99755.53;;;20.78;78.94
23170;BME280;11753;43.144;24.714;2022-08-11T05:42:06;99763.31;;;20.86;78.55
23170;BME280;11753;43.144;24.714;2022-08-11T05:43:26;99761.56;;;20.98;78.00
23170;BME280;11753;43.144;24.714;2022-08-11T05:44:46;99763.00;;;21.01;76.75
23170;BME280;11753;43.144;24.714;2022-08-11T05:46:06;99764.41;;;21.03;76.29
23170;BME280;11753;43.144;24.714;2022-08-11T05:47:26;99761.09;;;21.08;76.17
23170;BME280;11753;43.144;24.714;2022-08-11T05:48:45;99768.84;;;21.16;75.57
23170;BME280;11753;43.144;24.714;2022-08-11T05:50:06;99746.56;;;21.22;75.13
23170;BME280;11753;43.144;24.714;2022-08-11T05:51:47;99758.44;;;21.26;74.56
23170;BME280;11753;43.144;24.714;2022-08-11T05:53:08;99759.34;;;21.45;73.50
23170;BME280;11753;43.144;24.714;2022-08-11T05:54:27;99759.41;;;21.57;73.68
23170;BME280;11753;43.144;24.714;2022-08-11T05:55:47;99756.25;;;21.66;73.34
23170;BME280;11753;43.144;24.714;2022-08-11T05:57:07;99766.06;;;21.73;72.35
23170;BME280;11753;43.144;24.714;2022-08-11T05:58:09;99756.31;;;21.78;72.27
23170;BME280;11753;43.144;24.714;2022-08-11T05:59:11;99761.97;;;21.88;72.53
23170;BME280;11753;43.144;24.714;2022-08-11T06:00:23;99760.63;;;21.97;72.41
23170;BME280;11753;43.144;24.714;2022-08-11T06:01:24;99764.06;;;22.05;71.39
23170;BME280;11753;43.144;24.714;2022-08-11T06:02:26;99758.88;;;22.10;70.73
23170;BME280;11753;43.144;24.714;2022-08-11T06:03:28;99758.19;;;22.14;71.20
23170;BME280;11753;43.144;24.714;2022-08-11T06:04:29;99756.25;;;22.21;70.42
23170;BME280;11753;43.144;24.714;2022-08-11T06:05:33;99758.41;;;22.31;69.86
23170;BME280;11753;43.144;24.714;2022-08-11T06:06:35;99760.19;;;22.37;69.91
23170;BME280;11753;43.144;24.714;2022-08-11T06:07:36;99760.91;;;22.44;69.67
23170;BME280;11753;43.144;24.714;2022-08-11T06:08:38;99757.91;;;22.52;69.82
23170;BME280;11753;43.144;24.714;2022-08-11T06:09:48;99758.63;;;22.60;69.35
23170;BME280;11753;43.144;24.714;2022-08-11T06:10:50;99754.34;;;22.70;68.82
23170;BME280;11753;43.144;24.714;2022-08-11T06:11:51;99758.34;;;22.79;68.65
23170;BME280;11753;43.144;24.714;2022-08-11T06:12:52;99749.19;;;22.87;67.97
23170;BME280;11753;43.144;24.714;2022-08-11T06:13:54;99755.25;;;22.94;67.95
23170;BME280;11753;43.144;24.714;2022-08-11T06:15:03;99751.06;;;22.98;67.69
23170;BME280;11753;43.144;24.714;2022-08-11T06:16:05;99747.56;;;23.10;67.47
23170;BME280;11753;43.144;24.714;2022-08-11T06:17:06;99746.19;;;23.19;67.37
23170;BME280;11753;43.144;24.714;2022-08-11T06:18:08;99747.25;;;23.29;66.71
23170;BME280;11753;43.144;24.714;2022-08-11T06:19:11;99739.16;;;23.41;65.73
23170;BME280;11753;43.144;24.714;2022-08-11T06:20:13;99744.78;;;23.51;64.86
23170;BME280;11753;43.144;24.714;2022-08-11T06:21:15;99750.03;;;23.58;64.13
23170;BME280;11753;43.144;24.714;2022-08-11T06:22:18;99752.03;;;23.63;64.26
23170;BME280;11753;43.144;24.714;2022-08-11T06:23:20;99747.84;;;23.67;64.44
23170;BME280;11753;43.144;24.714;2022-08-11T06:24:23;99744.53;;;23.76;63.55
23170;BME280;11753;43.144;24.714;2022-08-11T06:25:30;99740.56;;;23.79;63.69
23170;BME280;11753;43.144;24.714;2022-08-11T06:26:32;99733.78;;;23.88;63.91
23170;BME280;11753;43.144;24.714;2022-08-11T06:27:33;99733.16;;;23.98;62.38
23170;BME280;11753;43.144;24.714;2022-08-11T06:28:35;99733.16;;;23.98;59.76
23170;BME280;11753;43.144;24.714;2022-08-11T06:29:36;99733.41;;;23.96;59.86
23170;BME280;11753;43.144;24.714;2022-08-11T06:41:25;99728.03;;;24.36;56.91
23170;BME280;11753;43.144;24.714;2022-08-11T06:42:53;99728.03;;;24.36;57.19
23170;BME280;11753;43.144;24.714;2022-08-11T06:43:52;99715.19;;;24.55;56.02
23170;BME280;11753;43.144;24.714;2022-08-11T06:45:04;99717.47;;;24.63;55.29
23170;BME280;11753;43.144;24.714;2022-08-11T06:46:07;99725.22;;;24.60;55.14
23170;BME280;11753;43.144;24.714;2022-08-11T06:47:11;99712.09;;;24.63;55.14
23170;BME280;11753;43.144;24.714;2022-08-11T06:48:20;99718.72;;;24.73;54.87
23170;BME280;11753;43.144;24.714;2022-08-11T06:49:21;99716.59;;;24.75;54.74
23170;BME280;11753;43.144;24.714;2022-08-11T06:50:45;99726.56;;;24.74;54.50
23170;BME280;11753;43.144;24.714;2022-08-11T06:52:07;99717.72;;;24.79;54.38
23170;BME280;11753;43.144;24.714;2022-08-11T06:53:09;99727.38;;;24.91;54.42
23170;BME280;11753;43.144;24.714;2022-08-11T06:54:10;99717.59;;;25.02;54.42
23170;BME280;11753;43.144;24.714;2022-08-11T06:55:13;99719.91;;;25.10;54.49
23170;BME280;11753;43.144;24.714;2022-08-11T06:56:35;99724.31;;;25.16;53.69
23170;BME280;11753;43.144;24.714;2022-08-11T06:57:54;99726.59;;;25.24;53.40
23170;BME280;11753;43.144;24.714;2022-08-11T06:59:15;99726.09;;;25.28;52.30
23170;BME280;11753;43.144;24.714;2022-08-11T07:00:35;99721.03;;;25.31;52.04
23170;BME280;11753;43.144;24.714;2022-08-11T07:01:40;99723.81;;;25.36;52.11
23170;BME280;11753;43.144;24.714;2022-08-11T07:04:04;99723.94;;;25.46;51.33
23170;BME280;11753;43.144;24.714;2022-08-11T07:05:22;99723.44;;;25.49;51.96
23170;BME280;11753;43.144;24.714;2022-08-11T07:06:32;99721.97;;;25.59;50.67
23170;BME280;11753;43.144;24.714;2022-08-11T07:14:09;99723.44;;;25.49;49.57
23170;BME280;11753;43.144;24.714;2022-08-11T07:15:32;99720.63;;;25.61;49.12
23170;BME280;11753;43.144;24.714;2022-08-11T07:21:36;99722.34;;;25.67;49.04
23170;BME280;11753;43.144;24.714;2022-08-11T07:23:00;99727.22;;;25.70;50.21
23170;BME280;11753;43.144;24.714;2022-08-11T07:24:27;99728.03;;;25.71;49.13
23170;BME280;11753;43.144;24.714;2022-08-11T07:26:03;99720.84;;;25.76;49.50
23170;BME280;11753;43.144;24.714;2022-08-11T07:27:22;99729.31;;;25.85;48.12
23170;BME280;11753;43.144;24.714;2022-08-11T07:28:44;99722.56;;;25.83;49.43
23170;BME280;11753;43.144;24.714;2022-08-11T07:29:55;99726.41;;;25.87;48.78
23170;BME280;11753;43.144;24.714;2022-08-11T07:31:03;99721.03;;;25.92;48.70
23170;BME280;11753;43.144;24.714;2022-08-11T07:32:16;99723.06;;;26.01;48.04
23170;BME280;11753;43.144;24.714;2022-08-11T07:33:26;99722.44;;;25.94;49.27
23170;BME280;11753;43.144;24.714;2022-08-11T07:34:46;99724.94;;;26.01;47.33
23170;BME280;11753;43.144;24.714;2022-08-11T07:35:52;99722.28;;;26.06;48.08
23170;BME280;11753;43.144;24.714;2022-08-11T07:36:56;99719.47;;;26.18;47.20
23170;BME280;11753;43.144;24.714;2022-08-11T07:38:00;99714.38;;;26.21;46.44
23170;BME280;11753;43.144;24.714;2022-08-11T07:39:02;99718.75;;;26.27;46.63
23170;BME280;11753;43.144;24.714;2022-08-11T07:40:03;99713.97;;;26.34;46.86
23170;BME280;11753;43.144;24.714;2022-08-11T07:41:04;99716.56;;;26.46;45.83
23170;BME280;11753;43.144;24.714;2022-08-11T07:42:14;99713.91;;;26.51;46.39
23170;BME280;11753;43.144;24.714;2022-08-11T07:43:15;99713.19;;;26.61;44.15
23170;BME280;11753;43.144;24.714;2022-08-11T07:44:16;99713.19;;;26.61;44.37
23170;BME280;11753;43.144;24.714;2022-08-11T07:45:17;99709.69;;;26.60;43.51
23170;BME280;11753;43.144;24.714;2022-08-11T07:46:43;99716.97;;;26.60;44.27
23170;BME280;11753;43.144;24.714;2022-08-11T07:48:03;99715.34;;;26.59;44.99
23170;BME280;11753;43.144;24.714;2022-08-11T07:49:27;99718.06;;;26.64;44.61
23170;BME280;11753;43.144;24.714;2022-08-11T07:50:46;99714.81;;;26.62;44.17
23170;BME280;11753;43.144;24.714;2022-08-11T07:52:06;99718.03;;;26.59;44.87
23170;BME280;11753;43.144;24.714;2022-08-11T07:53:26;99709.34;;;26.52;44.99
23170;BME280;11753;43.144;24.714;2022-08-11T07:54:28;99711.22;;;26.51;45.74
23170;BME280;11753;43.144;24.714;2022-08-11T07:55:29;99712.06;;;26.57;45.52
23170;BME280;11753;43.144;24.714;2022-08-11T07:56:36;99709.16;;;26.64;45.78
23170;BME280;11753;43.144;24.714;2022-08-11T07:57:38;99704.94;;;26.73;45.32
23170;BME280;11753;43.144;24.714;2022-08-11T07:58:58;99714.06;;;26.72;45.54
23170;BME280;11753;43.144;24.714;2022-08-11T08:00:18;99720.25;;;26.67;44.60
23170;BME280;11753;43.144;24.714;2022-08-11T08:01:37;99709.00;;;26.75;45.20
23170;BME280;11753;43.144;24.714;2022-08-11T08:02:57;99712.34;;;26.87;44.38
23170;BME280;11753;43.144;24.714;2022-08-11T08:04:36;99709.97;;;26.96;44.63
23170;BME280;11753;43.144;24.714;2022-08-11T08:05:54;99713.03;;;27.05;44.28
23170;BME280;11753;43.144;24.714;2022-08-11T08:07:13;99712.00;;;27.11;44.79
23170;BME280;11753;43.144;24.714;2022-08-11T08:08:53;99706.88;;;27.14;43.85
23170;BME280;11753;43.144;24.714;2022-08-11T08:10:14;99715.81;;;27.15;44.01
23170;BME280;11753;43.144;24.714;2022-08-11T08:11:35;99715.88;;;27.25;43.94
23170;BME280;11753;43.144;24.714;2022-08-11T08:12:55;99710.53;;;27.30;44.00
23170;BME280;11753;43.144;24.714;2022-08-11T08:14:34;99709.41;;;27.26;43.93
23170;BME280;11753;43.144;24.714;2022-08-11T08:15:54;99702.16;;;27.32;43.06
23170;BME280;11753;43.144;24.714;2022-08-11T08:17:13;99705.94;;;27.31;42.65
23170;BME280;11753;43.144;24.714;2022-08-11T08:18:33;99704.31;;;27.30;43.15
23170;BME280;11753;43.144;24.714;2022-08-11T08:19:35;99704.63;;;27.38;42.63
23170;BME280;11753;43.144;24.714;2022-08-11T08:20:38;99702.50;;;27.46;43.20
23170;BME280;11753;43.144;24.714;2022-08-11T08:21:39;99700.31;;;27.42;42.48
23170;BME280;11753;43.144;24.714;2022-08-11T08:22:44;99707.94;;;27.56;43.07
23170;BME280;11753;43.144;24.714;2022-08-11T08:23:45;99712.31;;;27.62;42.82
23170;BME280;11753;43.144;24.714;2022-08-11T08:24:46;99705.31;;;27.66;42.33
23170;BME280;11753;43.144;24.714;2022-08-11T08:25:48;99708.25;;;27.64;42.03
23170;BME280;11753;43.144;24.714;2022-08-11T08:26:52;99709.69;;;27.72;41.98
23170;BME280;11753;43.144;24.714;2022-08-11T08:28:00;99708.06;;;27.76;42.58
23170;BME280;11753;43.144;24.714;2022-08-11T08:29:02;99704.84;;;27.79;42.94
23170;BME280;11753;43.144;24.714;2022-08-11T08:30:29;99703.00;;;27.90;41.85
23170;BME280;11753;43.144;24.714;2022-08-11T08:31:49;99703.28;;;27.93;42.17
23170;BME280;11753;43.144;24.714;2022-08-11T08:32:50;99700.06;;;28.02;42.23
23170;BME280;11753;43.144;24.714;2022-08-11T08:33:51;99697.38;;;28.02;41.98
23170;BME280;11753;43.144;24.714;2022-08-11T08:34:52;99701.63;;;27.92;41.55
23170;BME280;11753;43.144;24.714;2022-08-11T08:35:56;99702.75;;;27.96;41.97
23170;BME280;11753;43.144;24.714;2022-08-11T08:37:11;99702.47;;;27.98;40.92
23170;BME280;11753;43.144;24.714;2022-08-11T08:38:12;99694.09;;;27.94;40.90
23170;BME280;11753;43.144;24.714;2022-08-11T08:39:13;99700.78;;;27.77;41.53
23170;BME280;11753;43.144;24.714;2022-08-11T08:40:18;99701.50;;;27.62;42.08
23170;BME280;11753;43.144;24.714;2022-08-11T08:41:19;99700.41;;;27.63;42.81
23170;BME280;11753;43.144;24.714;2022-08-11T08:42:28;99688.50;;;27.59;42.13
23170;BME280;11753;43.144;24.714;2022-08-11T08:43:30;99702.78;;;27.49;43.42
23170;BME280;11753;43.144;24.714;2022-08-11T08:44:33;99696.56;;;27.49;43.00
23170;BME280;11753;43.144;24.714;2022-08-11T08:45:35;99698.25;;;27.60;42.95
23170;BME280;11753;43.144;24.714;2022-08-11T08:46:36;99693.47;;;27.77;42.64
23170;BME280;11753;43.144;24.714;2022-08-11T08:47:44;99698.59;;;27.79;42.30
23170;BME280;11753;43.144;24.714;2022-08-11T08:48:46;99697.25;;;27.76;42.91
23170;BME280;11753;43.144;24.714;2022-08-11T08:49:48;99694.91;;;27.95;41.75
23170;BME280;11753;43.144;24.714;2022-08-11T08:50:51;99698.97;;;27.97;42.16
23170;BME280;11753;43.144;24.714;2022-08-11T08:52:12;99694.91;;;28.05;41.92
23170;BME280;11753;43.144;24.714;2022-08-11T08:53:14;99700.63;;;28.09;42.35
23170;BME280;11753;43.144;24.714;2022-08-11T08:54:19;99700.63;;;28.09;42.12
23170;BME280;11753;43.144;24.714;2022-08-11T08:55:21;99698.97;;;27.97;41.40
23170;BME280;11753;43.144;24.714;2022-08-11T08:56:26;99699.69;;;27.78;41.48
23170;BME280;11753;43.144;24.714;2022-08-11T08:57:27;99695.75;;;27.48;41.82
23170;BME280;11753;43.144;24.714;2022-08-11T08:58:30;99694.31;;;27.30;41.93
23170;BME280;11753;43.144;24.714;2022-08-11T08:59:33;99690.38;;;27.11;42.56
23170;BME280;11753;43.144;24.714;2022-08-11T09:00:40;99697.94;;;27.09;42.76
23170;BME280;11753;43.144;24.714;2022-08-11T09:02:43;99683.25;;;27.00;43.03
23170;BME280;11753;43.144;24.714;2022-08-11T09:03:45;99691.28;;;26.89;43.17
23170;BME280;11753;43.144;24.714;2022-08-11T09:04:46;99689.22;;;26.70;43.36
23170;BME280;11753;43.144;24.714;2022-08-11T09:05:47;99691.13;;;26.69;43.95
23170;BME280;11753;43.144;24.714;2022-08-11T09:06:48;99686.03;;;26.73;43.61
23170;BME280;11753;43.144;24.714;2022-08-11T09:07:49;99686.28;;;26.71;43.28
23170;BME280;11753;43.144;24.714;2022-08-11T09:08:55;99676.53;;;26.65;43.78
23170;BME280;11753;43.144;24.714;2022-08-11T09:09:57;99683.06;;;26.74;43.54
23170;BME280;11753;43.144;24.714;2022-08-11T09:10:58;99685.03;;;26.84;43.21
23170;BME280;11753;43.144;24.714;2022-08-11T09:12:19;99680.25;;;26.96;43.28
23170;BME280;11753;43.144;24.714;2022-08-11T09:13:20;99678.78;;;27.10;43.58
23170;BME280;11753;43.144;24.714;2022-08-11T09:14:22;99676.34;;;27.09;43.07
23170;BME280;11753;43.144;24.714;2022-08-11T09:15:23;99675.84;;;27.17;42.64
23170;BME280;11753;43.144;24.714;2022-08-11T09:16:26;99680.13;;;27.13;42.80
23170;BME280;11753;43.144;24.714;2022-08-11T09:17:27;99673.66;;;27.14;43.26
23170;BME280;11753;43.144;24.714;2022-08-11T09:18:28;99677.91;;;27.05;43.84
23170;BME280;11753;43.144;24.714;2022-08-11T09:19:30;99676.94;;;27.16;43.62
23170;BME280;11753;43.144;24.714;2022-08-11T09:20:32;99680.22;;;27.28;43.45
23170;BME280;11753;43.144;24.714;2022-08-11T09:21:33;99673.19;;;27.27;42.75
23170;BME280;11753;43.144;24.714;2022-08-11T09:22:35;99676.38;;;27.19;43.74
23170;BME280;11753;43.144;24.714;2022-08-11T09:23:56;99675.34;;;27.25;42.82
23170;BME280;11753;43.144;24.714;2022-08-11T09:25:16;99678.56;;;27.17;44.14
23170;BME280;11753;43.144;24.714;2022-08-11T09:26:36;99676.44;;;27.24;43.04
23170;BME280;11753;43.144;24.714;2022-08-11T09:27:47;99682.47;;;27.41;43.31
23170;BME280;11753;43.144;24.714;2022-08-11T09:28:48;99682.56;;;27.62;43.10
23170;BME280;11753;43.144;24.714;2022-08-11T09:29:49;99677.19;;;27.67;42.98
23170;BME280;11753;43.144;24.714;2022-08-11T09:30:51;99673.09;;;27.64;42.21
23170;BME280;11753;43.144;24.714;2022-08-11T09:31:55;99676.66;;;27.65;42.40
23170;BME280;11753;43.144;24.714;2022-08-11T09:32:58;99680.69;;;27.62;42.49
23170;BME280;11753;43.144;24.714;2022-08-11T09:34:05;99681.69;;;27.46;41.94
23170;BME280;11753;43.144;24.714;2022-08-11T09:35:05;99677.91;;;27.47;41.94
23170;BME280;11753;43.144;24.714;2022-08-11T09:36:07;99673.84;;;27.45;42.87
23170;BME280;11753;43.144;24.714;2022-08-11T09:37:27;99670.66;;;27.63;42.48